Time;durP1;ratioP1;P1;durP2;ratioP2;P2;SDS_P1;SDS_P2;PMS_P1;PMS_P2;Temp;Humidity;BMP_temperature;BMP_pressure;BME280_temperature;BME280_humidity;BME280_pressure;Samples;Min_cycle;Max_cycle;Signal;HPM_P1;HPM_P2
2021/06/22 00:02:18;;;;;;;7.30;3.78;;;;;;;15.32;100.00;93353.94;5137139;27;20207;-79
2021/06/22 00:04:46;;;;;;;5.38;3.95;;;;;;;15.29;100.00;93357.88;5137830;27;20223;-78
2021/06/22 00:07:14;;;;;;;5.70;3.80;;;;;;;15.25;100.00;93363.84;5137002;27;20205;-77
2021/06/22 00:09:41;;;;;;;7.63;4.35;;;;;;;15.28;100.00;93361.53;5136964;27;20265;-79
2021/06/22 00:12:08;;;;;;;7.07;4.80;;;;;;;15.33;100.00;93360.81;5136722;27;20435;-79
2021/06/22 00:14:35;;;;;;;7.65;4.88;;;;;;;15.27;100.00;93346.78;5139883;27;20201;-78
2021/06/22 00:17:01;;;;;;;8.73;4.50;;;;;;;15.29;100.00;93347.34;5137583;27;20203;-78
2021/06/22 00:19:28;;;;;;;11.80;5.35;;;;;;;15.36;100.00;93341.91;5136595;27;20204;-78
2021/06/22 00:21:56;;;;;;;9.88;5.40;;;;;;;15.50;100.00;93337.09;5137200;27;20204;-83
2021/06/22 00:24:22;;;;;;;9.77;3.95;;;;;;;15.56;100.00;93349.31;5136637;27;20200;-78
2021/06/22 00:26:49;;;;;;;12.43;5.18;;;;;;;15.57;100.00;93352.72;5124583;27;20237;-78
2021/06/22 00:29:16;;;;;;;8.25;3.63;;;;;;;15.56;100.00;93353.78;5115664;28;20733;-77
2021/06/22 00:31:43;;;;;;;7.90;3.92;;;;;;;15.53;100.00;93350.56;5115950;28;20220;-79
2021/06/22 00:34:09;;;;;;;13.07;3.72;;;;;;;15.51;100.00;93342.13;5115926;28;20521;-77
2021/06/22 00:36:36;;;;;;;6.65;3.60;;;;;;;15.48;100.00;93342.63;5115899;28;20209;-79
2021/06/22 00:39:04;;;;;;;6.55;3.78;;;;;;;15.44;100.00;93346.78;5115700;28;20570;-78
2021/06/22 00:41:31;;;;;;;7.20;3.72;;;;;;;15.52;100.00;93343.75;5115496;28;20223;-77
2021/06/22 00:44:04;;;;;;;10.65;4.10;;;;;;;15.61;100.00;93341.47;5115845;28;20201;-79
2021/06/22 00:46:36;;;;;;;7.72;3.53;;;;;;;15.60;100.00;93328.56;5115588;28;20205;-79
2021/06/22 00:49:04;;;;;;;6.50;3.75;;;;;;;15.60;100.00;93341.72;5115742;28;20204;-78
2021/06/22 00:51:31;;;;;;;8.40;4.05;;;;;;;15.61;100.00;93338.06;5114921;28;20194;-78
2021/06/22 00:53:58;;;;;;;6.22;4.07;;;;;;;15.62;100.00;93329.13;5115439;28;20643;-77
2021/06/22 00:56:26;;;;;;;5.80;3.92;;;;;;;15.60;100.00;93321.47;5115266;28;20201;-77
2021/06/22 00:58:53;;;;;;;9.23;3.78;;;;;;;15.59;100.00;93313.81;5114978;28;20275;-76
2021/06/22 01:01:19;;;;;;;8.75;3.72;;;;;;;15.56;100.00;93317.72;5114861;28;20202;-77
2021/06/22 01:03:46;;;;;;;9.07;4.03;;;;;;;15.58;100.00;93333.28;5115228;28;20209;-77
2021/06/22 01:06:13;;;;;;;6.85;3.70;;;;;;;15.62;100.00;93327.31;5115069;28;20206;-79
2021/06/22 01:08:40;;;;;;;6.63;3.60;;;;;;;15.58;100.00;93323.53;5115118;28;20202;-78
2021/06/22 01:11:07;;;;;;;7.80;3.30;;;;;;;15.53;100.00;93329.53;5115286;28;20236;-78
2021/06/22 01:13:35;;;;;;;9.02;3.25;;;;;;;15.50;100.00;93335.28;5115231;28;20205;-79
2021/06/22 01:16:01;;;;;;;13.25;4.32;;;;;;;15.49;100.00;93338.94;5115146;28;20201;-78
2021/06/22 01:18:28;;;;;;;6.53;3.40;;;;;;;15.48;100.00;93345.25;5114790;28;20663;-78
2021/06/22 01:20:57;;;;;;;7.72;3.80;;;;;;;15.41;100.00;93342.00;5114988;28;20204;-79
2021/06/22 01:23:24;;;;;;;7.10;3.50;;;;;;;15.37;100.00;93343.53;5115006;28;20197;-80
2021/06/22 01:25:50;;;;;;;10.98;3.67;;;;;;;15.33;100.00;93345.81;5118281;27;20228;-79
2021/06/22 01:28:17;;;;;;;7.07;3.17;;;;;;;15.35;100.00;93353.47;5135537;27;20204;-79
2021/06/22 01:30:43;;;;;;;10.48;3.63;;;;;;;15.37;100.00;93351.41;5135626;27;20228;-80
2021/06/22 01:33:10;;;;;;;5.88;3.28;;;;;;;15.34;100.00;93359.78;5135202;27;20197;-78
2021/06/22 01:35:36;;;;;;;8.43;4.03;;;;;;;15.32;100.00;93365.28;5135035;27;20204;-78
2021/06/22 01:38:07;;;;;;;7.83;4.43;;;;;;;15.33;100.00;93366.06;5134410;27;20437;-79
2021/06/22 01:40:42;;;;;;;6.97;4.20;;;;;;;15.32;100.00;93364.47;5134768;27;20446;-78
2021/06/22 01:43:09;;;;;;;8.32;3.75;;;;;;;15.28;100.00;93361.53;5114411;28;20193;-77
2021/06/22 01:45:35;;;;;;;8.82;4.05;;;;;;;15.25;100.00;93364.63;5114410;28;20201;-79
2021/06/22 01:48:02;;;;;;;6.97;4.75;;;;;;;15.25;100.00;93371.72;5114301;28;20194;-80
2021/06/22 01:50:29;;;;;;;7.57;3.60;;;;;;;15.27;100.00;93377.53;5114148;28;20221;-80
2021/06/22 01:52:55;;;;;;;5.13;3.38;;;;;;;15.25;100.00;93379.63;5114346;28;20213;-79
2021/06/22 01:55:36;;;;;;;6.65;3.42;;;;;;;15.23;100.00;93382.47;5114263;28;20193;-79
2021/06/22 01:58:05;;;;;;;5.28;3.70;;;;;;;15.32;100.00;93390.75;5114356;28;20197;-79
2021/06/22 02:00:31;;;;;;;6.13;3.35;;;;;;;15.31;100.00;93389.19;5114233;28;20201;-79
2021/06/22 02:02:58;;;;;;;16.08;3.78;;;;;;;15.28;100.00;93387.81;5114128;28;20194;-78
2021/06/22 02:05:24;;;;;;;9.93;4.28;;;;;;;15.28;100.00;93384.41;5114172;28;20206;-79
2021/06/22 02:07:51;;;;;;;7.60;3.20;;;;;;;15.31;100.00;93386.56;5114105;28;20198;-78
2021/06/22 02:10:17;;;;;;;6.00;3.42;;;;;;;15.30;100.00;93392.84;5113765;28;20695;-78
2021/06/22 02:12:45;;;;;;;6.30;3.47;;;;;;;15.28;100.00;93384.41;5113955;28;20204;-79
2021/06/22 02:15:13;;;;;;;5.65;3.50;;;;;;;15.22;100.00;93374.81;5113839;28;20205;-78
2021/06/22 02:17:39;;;;;;;6.78;3.75;;;;;;;15.16;100.00;93372.13;5113685;28;20204;-78
2021/06/22 02:20:07;;;;;;;5.03;3.63;;;;;;;15.16;100.00;93371.34;5113706;28;20644;-79
2021/06/22 02:22:35;;;;;;;6.03;3.92;;;;;;;15.13;100.00;93367.34;5113783;28;20560;-78
2021/06/22 02:25:02;;;;;;;7.57;3.63;;;;;;;15.11;100.00;93360.72;5113750;28;20197;-78
2021/06/22 02:27:31;;;;;;;6.75;4.03;;;;;;;15.13;100.00;93362.06;5113590;28;20313;-78
2021/06/22 02:29:59;;;;;;;7.72;3.70;;;;;;;15.10;100.00;93357.28;5113313;28;20217;-77
2021/06/22 02:32:27;;;;;;;4.65;3.30;;;;;;;15.05;100.00;93349.31;5113719;28;20196;-79
2021/06/22 02:34:54;;;;;;;9.95;3.72;;;;;;;15.01;100.00;93360.56;5113648;28;20193;-78
2021/06/22 02:37:20;;;;;;;3.78;3.20;;;;;;;14.95;100.00;93362.31;5113463;28;20553;-78
2021/06/22 02:39:48;;;;;;;5.13;3.53;;;;;;;14.92;100.00;93355.69;5113526;28;20205;-79
2021/06/22 02:42:14;;;;;;;7.85;3.47;;;;;;;14.90;100.00;93357.75;5113422;28;20221;-78
2021/06/22 02:44:41;;;;;;;6.57;3.30;;;;;;;14.90;100.00;93349.06;5113280;28;20201;-79
2021/06/22 02:47:09;;;;;;;6.35;3.88;;;;;;;14.91;100.00;93348.06;5113617;28;20194;-78
2021/06/22 02:49:36;;;;;;;6.93;3.92;;;;;;;14.87;100.00;93346.91;5113501;28;20221;-79
2021/06/22 02:52:05;;;;;;;5.75;4.00;;;;;;;14.86;100.00;93337.47;5113305;28;20232;-78
2021/06/22 02:54:33;;;;;;;7.82;3.78;;;;;;;14.91;100.00;93332.28;5113351;28;20225;-79
2021/06/22 02:56:59;;;;;;;7.18;4.13;;;;;;;14.87;100.00;93323.25;5113148;28;20193;-79
2021/06/22 02:59:26;;;;;;;8.95;4.15;;;;;;;14.83;100.00;93314.28;5113519;28;20600;-81
2021/06/22 03:01:52;;;;;;;7.13;4.13;;;;;;;14.85;100.00;93318.25;5113286;28;20560;-79
2021/06/22 03:04:20;;;;;;;11.20;4.28;;;;;;;14.84;100.00;93313.22;5113347;28;20284;-78
2021/06/22 03:06:47;;;;;;;6.82;3.97;;;;;;;14.84;100.00;93314.03;5113195;28;20208;-79
2021/06/22 03:09:13;;;;;;;9.00;3.88;;;;;;;14.84;100.00;93310.59;5113279;28;20201;-79
2021/06/22 03:11:40;;;;;;;6.05;3.70;;;;;;;14.82;100.00;93308.19;5112989;28;20225;-79
2021/06/22 03:14:06;;;;;;;6.78;3.53;;;;;;;14.84;100.00;93310.59;5113163;28;20665;-78
2021/06/22 03:16:33;;;;;;;7.88;3.30;;;;;;;14.84;100.00;93305.34;5113082;28;20201;-79
2021/06/22 03:18:59;;;;;;;5.78;3.28;;;;;;;14.80;100.00;93303.22;5113371;28;20225;-79
2021/06/22 03:21:27;;;;;;;5.90;3.75;;;;;;;14.84;100.00;93300.09;5112954;28;20556;-79
2021/06/22 03:23:54;;;;;;;8.75;3.47;;;;;;;14.82;100.00;93296.91;5115948;28;20197;-80
2021/06/22 03:26:20;;;;;;;7.35;3.50;;;;;;;14.80;100.00;93295.31;5117028;28;20229;-79
2021/06/22 03:28:47;;;;;;;6.38;3.67;;;;;;;14.78;100.00;93297.38;5117431;28;20194;-78
2021/06/22 03:31:14;;;;;;;8.93;3.92;;;;;;;14.79;100.00;93298.97;5117046;28;20229;-78
2021/06/22 03:33:40;;;;;;;9.00;4.05;;;;;;;14.82;100.00;93296.91;5117105;28;20548;-78
2021/06/22 03:36:07;;;;;;;7.25;4.55;;;;;;;14.83;100.00;93303.75;5117065;28;20197;-80
2021/06/22 03:38:35;;;;;;;9.32;4.70;;;;;;;14.85;100.00;93302.47;5116372;28;20205;-80
2021/06/22 03:41:01;;;;;;;7.07;4.53;;;;;;;14.86;100.00;93298.81;5116786;28;20206;-79
2021/06/22 03:43:28;;;;;;;6.50;3.92;;;;;;;14.87;100.00;93294.34;5117152;28;20202;-79
2021/06/22 03:45:54;;;;;;;8.70;4.83;;;;;;;14.84;100.00;93294.81;5117066;27;20438;-78
2021/06/22 03:48:21;;;;;;;8.07;3.92;;;;;;;14.86;100.00;93290.16;5137197;27;20203;-79
2021/06/22 03:50:48;;;;;;;10.70;4.35;;;;;;;14.83;100.00;93296.66;5137274;27;20690;-79
2021/06/22 03:53:15;;;;;;;9.13;4.47;;;;;;;14.84;100.00;93297.44;5137053;27;20655;-77
2021/06/22 03:55:43;;;;;;;8.37;4.10;;;;;;;14.84;100.00;93306.16;5137362;27;20563;-78
2021/06/22 03:58:09;;;;;;;9.52;3.78;;;;;;;14.85;100.00;93312.97;5137131;27;20203;-77
2021/06/22 04:00:36;;;;;;;6.95;3.58;;;;;;;14.87;100.00;93310.13;5137107;27;20204;-80
2021/06/22 04:03:03;;;;;;;6.85;3.72;;;;;;;14.90;100.00;93307.03;5136894;27;20551;-79
2021/06/22 04:05:30;;;;;;;5.10;3.33;;;;;;;14.87;100.00;93304.88;5136841;27;20225;-78
2021/06/22 04:07:58;;;;;;;6.32;3.50;;;;;;;14.92;100.00;93310.19;5137028;27;20261;-78
2021/06/22 04:10:24;;;;;;;7.18;3.55;;;;;;;14.90;100.00;93310.44;5136841;27;20197;-80
2021/06/22 04:12:52;;;;;;;10.07;3.28;;;;;;;14.93;100.00;93314.44;5137314;27;20220;-79
2021/06/22 04:15:19;;;;;;;4.60;3.45;;;;;;;14.94;100.00;93310.78;5136745;27;20207;-77
2021/06/22 04:17:46;;;;;;;7.00;3.42;;;;;;;14.95;100.00;93317.63;5136818;27;20200;-78
2021/06/22 04:20:13;;;;;;;4.85;3.17;;;;;;;15.02;100.00;93320.91;5136644;27;20200;-77
2021/06/22 04:22:40;;;;;;;7.45;3.58;;;;;;;15.03;100.00;93309.34;5136786;27;20207;-79
2021/06/22 04:25:07;;;;;;;4.75;3.40;;;;;;;15.07;100.00;93305.22;5136458;27;20656;-77
2021/06/22 04:27:34;;;;;;;8.95;3.08;;;;;;;15.06;100.00;93300.19;5136449;27;20629;-79
2021/06/22 04:30:04;;;;;;;4.05;2.92;;;;;;;15.04;100.00;93304.88;5136585;27;20258;-79
2021/06/22 04:32:30;;;;;;;3.70;2.85;;;;;;;15.09;100.00;93305.75;5136325;27;20224;-79
2021/06/22 04:34:57;;;;;;;5.22;2.35;;;;;;;15.07;100.00;93293.88;5134951;27;20201;-78
2021/06/22 04:37:23;;;;;;;4.50;2.47;;;;;;;15.09;100.00;93299.72;5136252;27;20201;-78
2021/06/22 04:39:50;;;;;;;4.53;2.90;;;;;;;15.11;100.00;93301.03;5136494;27;20196;-78
2021/06/22 04:42:16;;;;;;;8.20;2.40;;;;;;;15.14;100.00;93295.31;5136384;27;20236;-78
2021/06/22 04:44:43;;;;;;;5.10;2.20;;;;;;;15.16;100.00;93295.84;5136340;27;20546;-78
2021/06/22 04:47:11;;;;;;;7.18;2.25;;;;;;;15.18;100.00;93291.16;5136090;27;20193;-78
2021/06/22 04:49:37;;;;;;;8.73;2.45;;;;;;;15.23;100.00;93287.81;5136002;27;20197;-78
2021/06/22 04:52:04;;;;;;;14.27;2.50;;;;;;;15.30;100.00;93282.38;5136069;27;20232;-78
2021/06/22 04:54:31;;;;;;;4.28;2.50;;;;;;;15.33;100.00;93285.31;5136169;27;20261;-77
2021/06/22 04:56:58;;;;;;;4.43;2.42;;;;;;;15.36;100.00;93284.06;5135993;27;20197;-78
2021/06/22 04:59:24;;;;;;;5.35;2.30;;;;;;;15.38;100.00;93281.97;5136090;27;20200;-77
2021/06/22 05:01:51;;;;;;;5.38;2.20;;;;;;;15.47;100.00;93287.59;5135889;27;20211;-77
2021/06/22 05:04:20;;;;;;;4.50;2.03;;;;;;;15.45;100.00;93290.47;5135756;27;20209;-76
2021/06/22 05:06:47;;;;;;;4.32;1.60;;;;;;;15.53;100.00;93290.06;5135803;27;20285;-79
2021/06/22 05:09:13;;;;;;;6.28;2.05;;;;;;;15.59;100.00;93288.31;5135809;27;20219;-79
2021/06/22 05:11:40;;;;;;;3.30;2.05;;;;;;;15.59;100.00;93287.50;5135663;27;20251;-79
2021/06/22 05:14:06;;;;;;;4.95;1.70;;;;;;;15.66;100.00;93296.03;5135687;27;20200;-77
2021/06/22 05:16:33;;;;;;;4.95;1.67;;;;;;;15.61;100.00;93290.69;5135353;27;20643;-77
2021/06/22 05:18:59;;;;;;;3.55;1.67;;;;;;;15.65;100.00;93294.41;5135535;27;20295;-77
2021/06/22 05:21:27;;;;;;;4.05;2.33;;;;;;;15.68;100.00;93299.19;5135624;27;20222;-78
2021/06/22 05:23:54;;;;;;;3.58;2.00;;;;;;;15.72;100.00;93303.75;5135645;27;20215;-79
2021/06/22 05:26:20;;;;;;;5.75;1.67;;;;;;;15.71;100.00;93298.72;5135789;27;20224;-78
2021/06/22 05:28:47;;;;;;;4.55;2.03;;;;;;;15.69;100.00;93312.13;5135168;27;20193;-78
2021/06/22 05:31:14;;;;;;;5.82;1.73;;;;;;;15.75;100.00;93315.59;5135386;27;20264;-77
2021/06/22 05:33:40;;;;;;;6.55;1.67;;;;;;;16.04;100.00;93310.22;5135395;27;20261;-76
2021/06/22 05:36:07;;;;;;;6.03;1.20;;;;;;;16.18;100.00;93308.78;5135228;27;20197;-78
2021/06/22 05:38:35;;;;;;;5.78;1.50;;;;;;;16.51;100.00;93320.19;5134603;27;20284;-78
2021/06/22 05:41:01;;;;;;;3.42;1.40;;;;;;;17.46;100.00;93313.63;5135166;27;20201;-77
2021/06/22 05:43:28;;;;;;;3.47;1.30;;;;;;;19.33;100.00;93326.09;5135103;27;20193;-76
2021/06/22 05:45:54;;;;;;;2.45;0.95;;;;;;;21.20;100.00;93339.22;5134625;27;20204;-76
2021/06/22 05:48:21;;;;;;;2.30;0.95;;;;;;;21.85;100.00;93337.34;5135185;27;20288;-76
2021/06/22 05:50:47;;;;;;;2.03;0.93;;;;;;;21.92;100.00;93338.59;5134839;27;20197;-77
2021/06/22 05:53:14;;;;;;;3.63;1.17;;;;;;;21.37;100.00;93348.66;5134454;27;20860;-77
2021/06/22 05:55:42;;;;;;;2.97;0.80;;;;;;;20.97;100.00;93342.56;5134689;27;20654;-77
2021/06/22 05:58:08;;;;;;;4.20;0.90;;;;;;;20.62;100.00;93331.09;5134763;27;20197;-77
2021/06/22 06:00:35;;;;;;;4.22;1.10;;;;;;;20.60;100.00;93326.03;5134673;27;20197;-76
2021/06/22 06:03:03;;;;;;;2.47;0.73;;;;;;;22.46;100.00;93320.72;5134855;27;20242;-76
2021/06/22 06:05:30;;;;;;;2.22;0.90;;;;;;;23.97;83.00;93326.97;5134727;27;20201;-75
2021/06/22 06:07:56;;;;;;;1.52;0.65;;;;;;;25.16;75.48;93340.59;5134506;27;20197;-77
2021/06/22 06:10:24;;;;;;;1.85;0.70;;;;;;;26.61;70.25;93338.56;5134589;27;20667;-76
2021/06/22 06:12:52;;;;;;;3.05;0.60;;;;;;;26.19;66.21;93350.38;5134392;27;20686;-75
2021/06/22 06:15:19;;;;;;;2.13;0.85;;;;;;;23.85;78.76;93347.19;5134648;27;20201;-77
2021/06/22 06:17:46;;;;;;;4.25;0.88;;;;;;;22.84;85.18;93357.22;5134433;27;20197;-76
2021/06/22 06:20:14;;;;;;;1.95;0.80;;;;;;;22.89;83.27;93360.59;5134474;27;20292;-75
2021/06/22 06:22:42;;;;;;;3.85;1.20;;;;;;;21.44;92.26;93365.84;5133976;27;20571;-75
2021/06/22 06:25:11;;;;;;;2.90;1.52;;;;;;;19.86;100.00;93365.53;5134138;27;20663;-77
2021/06/22 06:27:45;;;;;;;4.15;1.52;;;;;;;19.40;100.00;93379.59;5133959;27;20254;-79
2021/06/22 06:30:16;;;;;;;5.00;2.38;;;;;;;18.51;100.00;93375.44;5134297;27;20624;-77
2021/06/22 06:32:42;;;;;;;13.20;3.78;;;;;;;18.09;100.00;93388.47;5134166;27;20622;-76
2021/06/22 06:35:10;;;;;;;5.70;3.17;;;;;;;17.94;100.00;93383.91;5134411;27;20197;-76
2021/06/22 06:37:36;;;;;;;8.10;4.22;;;;;;;17.40;100.00;93397.22;5134980;27;20196;-77
2021/06/22 06:40:04;;;;;;;10.98;6.10;;;;;;;17.13;100.00;93403.34;5133959;27;20201;-77
2021/06/22 06:42:31;;;;;;;8.77;6.05;;;;;;;16.66;100.00;93411.81;5135599;27;20203;-79
2021/06/22 06:44:57;;;;;;;11.77;6.10;;;;;;;16.41;100.00;93415.75;5135567;27;20536;-79
2021/06/22 06:47:25;;;;;;;12.25;5.75;;;;;;;16.37;100.00;93421.75;5134582;27;20204;-79
2021/06/22 06:49:52;;;;;;;6.55;4.55;;;;;;;16.34;100.00;93417.00;5133907;27;20207;-77
2021/06/22 06:52:19;;;;;;;14.55;4.35;;;;;;;16.25;100.00;93422.69;5133560;27;20220;-77
2021/06/22 06:54:46;;;;;;;7.43;4.75;;;;;;;16.22;100.00;93432.88;5133853;27;20204;-76
2021/06/22 06:57:12;;;;;;;9.13;5.10;;;;;;;16.26;100.00;93439.28;5133470;27;20223;-78
2021/06/22 06:59:39;;;;;;;8.55;4.65;;;;;;;16.11;100.00;93445.13;5134018;28;20343;-79
2021/06/22 07:02:05;;;;;;;8.80;4.60;;;;;;;16.22;100.00;93453.94;5134341;28;20666;-79
2021/06/22 07:04:33;;;;;;;7.90;3.92;;;;;;;16.24;100.00;93450.06;5135163;28;20203;-77
2021/06/22 07:07:00;;;;;;;9.18;4.22;;;;;;;16.34;100.00;93459.13;5134881;28;20235;-78
2021/06/22 07:09:27;;;;;;;6.18;3.97;;;;;;;16.34;100.00;93459.13;5135692;28;20197;-77
2021/06/22 07:11:56;;;;;;;6.15;3.17;;;;;;;16.27;100.00;93467.22;5137030;28;20224;-80
2021/06/22 07:14:22;;;;;;;4.60;3.00;;;;;;;16.03;100.00;93469.25;5137165;28;20559;-77
2021/06/22 07:16:49;;;;;;;6.03;3.08;;;;;;;15.99;100.00;93474.19;5134991;28;20579;-78
2021/06/22 07:19:16;;;;;;;6.60;3.20;;;;;;;15.96;100.00;93472.03;5138090;28;20200;-77
2021/06/22 07:21:43;;;;;;;6.35;3.20;;;;;;;15.99;100.00;93462.88;5135348;28;20205;-77
2021/06/22 07:24:10;;;;;;;6.78;3.33;;;;;;;16.08;100.00;93451.66;5135164;28;20207;-76
2021/06/22 07:26:37;;;;;;;8.18;3.25;;;;;;;16.28;100.00;93461.69;5124393;28;20229;-76
2021/06/22 07:29:04;;;;;;;6.90;2.58;;;;;;;16.58;100.00;93459.69;5113000;28;20197;-78
2021/06/22 07:31:31;;;;;;;3.33;2.00;;;;;;;17.10;100.00;93474.28;5112780;28;20648;-77
2021/06/22 07:33:57;;;;;;;3.83;1.98;;;;;;;17.63;100.00;93467.38;5112969;28;20201;-78
2021/06/22 07:36:24;;;;;;;5.13;1.83;;;;;;;17.94;100.00;93467.66;5112707;28;20193;-78
2021/06/22 07:38:52;;;;;;;3.05;1.75;;;;;;;18.20;100.00;93463.34;5112540;28;20197;-76
2021/06/22 07:41:18;;;;;;;2.92;1.67;;;;;;;18.46;100.00;93461.59;5112932;28;20225;-77
2021/06/22 07:43:45;;;;;;;5.07;2.35;;;;;;;18.30;100.00;93452.00;5112858;28;20205;-76
2021/06/22 07:46:12;;;;;;;2.42;2.08;;;;;;;18.18;100.00;93443.50;5113072;28;20247;-76
2021/06/22 07:48:38;;;;;;;3.03;1.95;;;;;;;18.28;100.00;93448.81;5112764;28;20201;-76
2021/06/22 07:51:05;;;;;;;4.55;1.80;;;;;;;18.57;100.00;93451.06;5113169;28;20205;-77
2021/06/22 07:53:32;;;;;;;5.68;2.33;;;;;;;18.49;100.00;93455.81;5112682;28;20221;-78
2021/06/22 07:55:59;;;;;;;6.30;2.00;;;;;;;18.36;100.00;93453.63;5112587;28;20534;-78
2021/06/22 07:58:26;;;;;;;3.03;1.80;;;;;;;18.36;100.00;93455.47;5112874;28;20201;-77
2021/06/22 08:00:54;;;;;;;5.13;2.10;;;;;;;18.33;100.00;93446.22;5112757;28;20549;-76
2021/06/22 08:03:23;;;;;;;4.65;1.65;;;;;;;18.24;100.00;93447.75;5112464;28;20193;-77
2021/06/22 08:05:52;;;;;;;3.70;1.60;;;;;;;18.29;100.00;93435.34;5112880;28;20246;-78
2021/06/22 08:08:19;;;;;;;2.63;1.33;;;;;;;18.27;100.00;93440.09;5093630;28;20289;-81
2021/06/22 08:10:47;;;;;;;4.65;1.90;;;;;;;18.71;100.00;93435.53;5096198;28;20205;-77
2021/06/22 08:13:15;;;;;;;2.53;1.63;;;;;;;19.09;100.00;93434.34;5095516;28;20233;-78
2021/06/22 08:15:42;;;;;;;2.75;1.10;;;;;;;19.11;100.00;93449.97;5095678;28;20194;-78
2021/06/22 08:18:09;;;;;;;4.70;1.30;;;;;;;19.74;100.00;93453.22;5095899;28;20201;-76
2021/06/22 08:20:37;;;;;;;2.70;1.05;;;;;;;19.19;97.88;93447.59;5095850;28;20221;-77
2021/06/22 08:23:05;;;;;;;1.77;1.10;;;;;;;18.89;100.00;93453.63;5095840;28;20220;-76
2021/06/22 08:25:32;;;;;;;1.60;1.00;;;;;;;19.08;100.00;93451.28;5096563;27;20206;-77
2021/06/22 08:27:58;;;;;;;2.47;1.05;;;;;;;18.55;100.00;93454.00;5136521;27;20807;-78
2021/06/22 08:30:27;;;;;;;1.75;1.20;;;;;;;18.22;100.00;93461.22;5136345;27;20679;-78
2021/06/22 08:32:54;;;;;;;4.35;1.30;;;;;;;18.00;100.00;93464.00;5136604;27;20228;-76
2021/06/22 08:35:21;;;;;;;2.67;1.15;;;;;;;17.92;100.00;93478.47;5136353;27;20662;-76
2021/06/22 08:37:48;;;;;;;6.13;1.35;;;;;;;17.66;100.00;93479.28;5136282;27;20647;-76
2021/06/22 08:40:15;;;;;;;4.45;1.55;;;;;;;17.67;100.00;93481.69;5136461;27;20192;-77
2021/06/22 08:42:42;;;;;;;3.45;1.20;;;;;;;17.05;100.00;93490.03;5136181;27;20201;-77
2021/06/22 08:45:11;;;;;;;4.05;1.45;;;;;;;16.84;100.00;93487.16;5136091;27;20201;-77
2021/06/22 08:47:39;;;;;;;4.00;1.48;;;;;;;16.76;100.00;93482.31;5136256;27;20219;-76
2021/06/22 08:50:07;;;;;;;2.97;1.65;;;;;;;16.67;100.00;93484.59;5136252;27;20554;-79
2021/06/22 08:52:35;;;;;;;4.00;1.65;;;;;;;16.64;100.00;93472.69;5135858;27;20594;-76
2021/06/22 08:55:03;;;;;;;5.10;1.58;;;;;;;17.05;100.00;93482.91;5136151;27;20208;-77
2021/06/22 08:57:29;;;;;;;2.17;1.70;;;;;;;17.61;100.00;93468.69;5135828;27;20203;-79
2021/06/22 08:59:55;;;;;;;3.28;1.52;;;;;;;17.87;100.00;93477.63;5136123;27;20200;-77
2021/06/22 09:02:27;;;;;;;3.40;1.50;;;;;;;18.30;100.00;93473.16;5135945;27;20211;-77
2021/06/22 09:04:56;;;;;;;3.45;1.67;;;;;;;18.26;100.00;93475.50;5135687;27;20700;-77
2021/06/22 09:07:43;;;;;;;8.40;1.77;;;;;;;18.47;100.00;93473.78;5135594;27;20723;-78
2021/06/22 09:10:22;;;;;;;4.57;1.48;;;;;;;18.48;100.00;93479.84;5135853;27;20667;-76
2021/06/22 09:12:49;;;;;;;5.25;2.00;;;;;;;18.38;100.00;93480.59;5136021;27;20560;-78
2021/06/22 09:15:21;;;;;;;3.00;1.38;;;;;;;18.27;100.00;93486.91;5136352;27;20200;-78
2021/06/22 09:17:48;;;;;;;3.33;1.30;;;;;;;18.51;100.00;93489.13;5142059;27;20197;-78
2021/06/22 09:20:32;;;;;;;4.25;1.65;;;;;;;18.33;100.00;93491.13;5136201;27;20204;-80
2021/06/22 09:23:11;;;;;;;4.35;1.52;;;;;;;18.31;100.00;93485.31;5136484;27;20200;-80
2021/06/22 09:25:37;;;;;;;4.13;1.80;;;;;;;18.51;100.00;93491.78;5135579;27;20325;-79
2021/06/22 09:28:04;;;;;;;3.97;1.35;;;;;;;18.99;100.00;93487.25;5136834;27;20197;-76
2021/06/22 09:30:46;;;;;;;2.83;1.50;;;;;;;19.57;100.00;93498.50;5139593;27;20216;-77
2021/06/22 09:33:18;;;;;;;4.35;1.30;;;;;;;19.25;100.00;93498.69;5137846;27;20236;-77
2021/06/22 09:35:47;;;;;;;4.13;1.50;;;;;;;19.09;100.00;93494.44;5135623;27;20201;-76
2021/06/22 09:38:14;;;;;;;4.15;1.35;;;;;;;19.15;100.00;93510.06;5116928;27;20200;-75
2021/06/22 09:40:41;;;;;;;2.20;1.33;;;;;;;18.97;100.00;93526.41;5135206;27;20591;-74
2021/06/22 09:43:08;;;;;;;3.25;1.48;;;;;;;19.35;100.00;93522.56;5151722;27;20289;-77
2021/06/22 09:45:37;;;;;;;2.55;1.48;;;;;;;19.39;100.00;93533.44;5155809;27;20550;-75
2021/06/22 09:48:05;;;;;;;5.80;1.67;;;;;;;18.98;100.00;93526.13;5155903;27;20562;-76
2021/06/22 09:50:37;;;;;;;1.92;1.20;;;;;;;18.82;100.00;93532.41;5155904;27;20203;-75
2021/06/22 09:53:27;;;;;;;2.28;1.33;;;;;;;18.92;100.00;93534.31;5155437;27;20234;-75
2021/06/22 09:55:55;;;;;;;1.90;1.30;;;;;;;19.46;100.00;93525.22;5155523;27;20195;-79
2021/06/22 09:58:40;;;;;;;1.20;0.98;;;;;;;20.21;97.30;93525.56;5155762;27;20211;-75
2021/06/22 10:01:25;;;;;;;5.05;1.13;;;;;;;19.40;98.25;93527.06;5155593;27;20256;-76
2021/06/22 10:03:52;;;;;;;2.72;1.33;;;;;;;19.56;100.00;93535.84;5155315;27;20290;-74
2021/06/22 10:06:18;;;;;;;1.80;1.25;;;;;;;19.79;100.00;93529.28;5155145;27;20196;-75
2021/06/22 10:08:55;;;;;;;1.80;1.10;;;;;;;19.94;99.56;93526.63;5155455;27;20192;-75
2021/06/22 10:11:33;;;;;;;3.38;1.52;;;;;;;19.78;99.32;93533.78;5155279;27;20195;-77
2021/06/22 10:14:00;;;;;;;2.10;1.42;;;;;;;20.40;99.36;93538.28;5155163;27;20292;-76
2021/06/22 10:16:29;;;;;;;4.18;1.33;;;;;;;20.94;93.90;93537.66;5155175;27;20196;-75
2021/06/22 10:18:56;;;;;;;3.20;1.20;;;;;;;20.41;96.85;93534.56;5155072;27;20206;-75
2021/06/22 10:21:23;;;;;;;1.80;1.25;;;;;;;19.72;100.00;93540.09;5154751;27;20203;-78
2021/06/22 10:23:51;;;;;;;2.60;1.30;;;;;;;20.05;96.27;93542.53;5154587;27;20206;-76
2021/06/22 10:26:20;;;;;;;4.32;1.40;;;;;;;19.31;99.24;93547.94;5154202;27;20232;-77
2021/06/22 10:28:47;;;;;;;2.50;1.13;;;;;;;19.62;99.27;93542.75;5154984;27;20298;-78
2021/06/22 10:31:13;;;;;;;1.20;1.10;;;;;;;19.64;98.61;93535.31;5154774;27;20228;-77
2021/06/22 10:33:40;;;;;;;4.18;1.60;;;;;;;19.07;100.00;93544.97;5154000;27;20256;-77
2021/06/22 10:36:08;;;;;;;2.72;1.30;;;;;;;18.67;100.00;93546.34;5154835;27;20208;-76
2021/06/22 10:38:37;;;;;;;3.40;1.33;;;;;;;18.45;100.00;93549.91;5155088;27;20196;-75
2021/06/22 10:41:05;;;;;;;3.03;1.40;;;;;;;18.59;100.00;93554.75;5154667;27;20666;-76
2021/06/22 10:43:37;;;;;;;3.63;1.50;;;;;;;18.76;100.00;93560.66;5155239;27;20206;-75
2021/06/22 10:46:05;;;;;;;2.15;1.38;;;;;;;18.72;100.00;93558.78;5154695;27;20203;-76
2021/06/22 10:48:42;;;;;;;4.10;1.38;;;;;;;18.94;99.97;93553.38;5154835;27;20202;-76
2021/06/22 10:51:41;;;;;;;2.20;1.10;;;;;;;18.71;100.00;93563.28;5154936;27;20200;-76
2021/06/22 10:54:09;;;;;;;2.90;1.00;;;;;;;18.33;100.00;93559.84;5154296;27;20226;-75
2021/06/22 10:56:41;;;;;;;2.03;1.20;;;;;;;18.21;100.00;93567.19;5154771;27;20287;-74
2021/06/22 10:59:26;;;;;;;1.35;0.85;;;;;;;18.11;100.00;93566.03;5154645;27;20291;-76
2021/06/22 11:02:04;;;;;;;2.30;1.10;;;;;;;17.93;100.00;93574.34;5154637;27;20192;-75
2021/06/22 11:04:31;;;;;;;2.40;1.05;;;;;;;17.81;100.00;93566.56;5154420;27;20227;-74
2021/06/22 11:07:19;;;;;;;2.90;1.20;;;;;;;17.94;100.00;93565.38;5153998;27;20435;-75
2021/06/22 11:10:14;;;;;;;3.35;1.30;;;;;;;17.97;100.00;93564.88;5152966;27;20286;-75
2021/06/22 11:12:56;;;;;;;5.78;1.30;;;;;;;18.04;100.00;93575.25;5154330;27;20199;-75
2021/06/22 11:15:45;;;;;;;1.90;1.10;;;;;;;18.18;100.00;93570.31;5154528;27;20200;-75
2021/06/22 11:18:16;;;;;;;2.33;1.13;;;;;;;17.83;100.00;93574.22;5154401;27;20207;-74
2021/06/22 11:20:43;;;;;;;4.93;1.27;;;;;;;17.64;100.00;93571.94;5154357;27;20278;-76
2021/06/22 11:23:11;;;;;;;2.85;1.40;;;;;;;17.47;100.00;93572.03;5154224;27;20218;-76
2021/06/22 11:26:01;;;;;;;1.20;0.80;;;;;;;17.50;100.00;93576.00;5154002;27;20210;-77
2021/06/22 11:28:28;;;;;;;2.47;0.95;;;;;;;17.17;100.00;93569.88;5154434;27;20204;-76
2021/06/22 11:30:58;;;;;;;3.13;1.10;;;;;;;16.92;100.00;93580.88;5154165;27;20199;-76